sensor_id;sensor_type;location;lat;lon;timestamp;P1;durP1;ratioP1;P2;durP2;ratioP2
78324;SDS011;67584;51.400;6.692;2023-04-03T00:01:28;16.13;;;10.15;;
78324;SDS011;67584;51.400;6.692;2023-04-03T00:03:53;14.98;;;9.52;;
78324;SDS011;67584;51.400;6.692;2023-04-03T00:06:20;16.30;;;9.85;;
78324;SDS011;67584;51.400;6.692;2023-04-03T00:08:47;17.92;;;9.60;;
78324;SDS011;67584;51.400;6.692;2023-04-03T00:11:13;15.30;;;8.98;;
78324;SDS011;67584;51.400;6.692;2023-04-03T00:13:40;15.15;;;8.90;;
78324;SDS011;67584;51.400;6.692;2023-04-03T00:16:06;15.95;;;9.93;;
78324;SDS011;67584;51.400;6.692;2023-04-03T00:18:33;16.55;;;8.88;;
78324;SDS011;67584;51.400;6.692;2023-04-03T00:20:59;14.85;;;9.40;;
78324;SDS011;67584;51.400;6.692;2023-04-03T00:23:25;21.25;;;10.68;;
78324;SDS011;67584;51.400;6.692;2023-04-03T00:25:51;15.27;;;9.57;;
78324;SDS011;67584;51.400;6.692;2023-04-03T00:28:17;16.70;;;9.52;;
78324;SDS011;67584;51.400;6.692;2023-04-03T00:30:43;15.52;;;8.88;;
78324;SDS011;67584;51.400;6.692;2023-04-03T00:33:10;13.98;;;9.40;;
78324;SDS011;67584;51.400;6.692;2023-04-03T00:35:37;16.75;;;9.80;;
78324;SDS011;67584;51.400;6.692;2023-04-03T00:38:04;12.85;;;8.80;;
78324;SDS011;67584;51.400;6.692;2023-04-03T00:40:32;14.20;;;8.40;;
78324;SDS011;67584;51.400;6.692;2023-04-03T00:43:05;14.88;;;8.82;;
78324;SDS011;67584;51.400;6.692;2023-04-03T00:45:39;15.40;;;9.15;;
78324;SDS011;67584;51.400;6.692;2023-04-03T00:48:07;15.55;;;9.88;;
78324;SDS011;67584;51.400;6.692;2023-04-03T00:50:39;13.40;;;8.30;;
78324;SDS011;67584;51.400;6.692;2023-04-03T00:53:06;14.00;;;8.75;;
78324;SDS011;67584;51.400;6.692;2023-04-03T00:55:36;12.57;;;8.27;;
78324;SDS011;67584;51.400;6.692;2023-04-03T00:58:04;17.50;;;9.48;;
78324;SDS011;67584;51.400;6.692;2023-04-03T01:00:32;13.45;;;9.35;;
78324;SDS011;67584;51.400;6.692;2023-04-03T01:02:58;16.50;;;10.43;;
78324;SDS011;67584;51.400;6.692;2023-04-03T01:05:24;13.57;;;9.18;;
78324;SDS011;67584;51.400;6.692;2023-04-03T01:07:50;14.00;;;8.75;;
78324;SDS011;67584;51.400;6.692;2023-04-03T01:10:18;11.43;;;7.57;;
78324;SDS011;67584;51.400;6.692;2023-04-03T01:12:46;15.45;;;9.55;;
78324;SDS011;67584;51.400;6.692;2023-04-03T01:15:20;15.48;;;9.82;;
78324;SDS011;67584;51.400;6.692;2023-04-03T01:17:49;13.65;;;8.43;;
78324;SDS011;67584;51.400;6.692;2023-04-03T01:25:38;14.82;;;8.60;;
78324;SDS011;67584;51.400;6.692;2023-04-03T01:28:09;14.77;;;8.73;;
78324;SDS011;67584;51.400;6.692;2023-04-03T01:30:41;15.05;;;8.55;;
78324;SDS011;67584;51.400;6.692;2023-04-03T01:33:11;14.55;;;9.02;;
78324;SDS011;67584;51.400;6.692;2023-04-03T01:35:37;15.95;;;8.57;;
78324;SDS011;67584;51.400;6.692;2023-04-03T01:38:02;13.02;;;8.48;;
78324;SDS011;67584;51.400;6.692;2023-04-03T01:40:28;13.85;;;7.53;;
78324;SDS011;67584;51.400;6.692;2023-04-03T01:42:54;13.15;;;7.80;;
78324;SDS011;67584;51.400;6.692;2023-04-03T01:45:19;13.57;;;7.78;;
78324;SDS011;67584;51.400;6.692;2023-04-03T01:47:45;10.88;;;7.60;;
78324;SDS011;67584;51.400;6.692;2023-04-03T01:50:11;11.63;;;6.75;;
78324;SDS011;67584;51.400;6.692;2023-04-03T01:52:37;12.18;;;7.68;;
78324;SDS011;67584;51.400;6.692;2023-04-03T01:55:02;10.45;;;7.07;;
78324;SDS011;67584;51.400;6.692;2023-04-03T01:57:28;10.43;;;6.28;;
78324;SDS011;67584;51.400;6.692;2023-04-03T01:59:54;10.98;;;6.07;;
78324;SDS011;67584;51.400;6.692;2023-04-03T02:02:20;17.73;;;6.22;;
78324;SDS011;67584;51.400;6.692;2023-04-03T02:04:45;11.68;;;5.45;;
78324;SDS011;67584;51.400;6.692;2023-04-03T02:07:11;10.05;;;6.10;;
78324;SDS011;67584;51.400;6.692;2023-04-03T02:09:37;10.35;;;5.70;;
78324;SDS011;67584;51.400;6.692;2023-04-03T02:12:03;10.52;;;5.70;;
78324;SDS011;67584;51.400;6.692;2023-04-03T02:14:29;10.02;;;4.95;;
78324;SDS011;67584;51.400;6.692;2023-04-03T02:16:55;8.73;;;5.35;;
78324;SDS011;67584;51.400;6.692;2023-04-03T02:19:21;8.70;;;5.05;;
78324;SDS011;67584;51.400;6.692;2023-04-03T02:21:47;11.57;;;5.65;;
78324;SDS011;67584;51.400;6.692;2023-04-03T02:24:14;7.25;;;4.68;;
78324;SDS011;67584;51.400;6.692;2023-04-03T02:26:39;7.55;;;5.35;;
78324;SDS011;67584;51.400;6.692;2023-04-03T02:29:05;8.15;;;4.70;;
78324;SDS011;67584;51.400;6.692;2023-04-03T02:31:31;7.63;;;4.88;;
78324;SDS011;67584;51.400;6.692;2023-04-03T02:33:58;7.30;;;5.03;;
78324;SDS011;67584;51.400;6.692;2023-04-03T02:36:24;6.85;;;5.00;;
78324;SDS011;67584;51.400;6.692;2023-04-03T02:38:54;6.72;;;4.65;;
78324;SDS011;67584;51.400;6.692;2023-04-03T02:41:20;9.75;;;5.15;;
78324;SDS011;67584;51.400;6.692;2023-04-03T02:43:46;8.02;;;4.85;;
78324;SDS011;67584;51.400;6.692;2023-04-03T02:46:12;6.40;;;4.97;;
78324;SDS011;67584;51.400;6.692;2023-04-03T02:48:40;7.97;;;4.65;;
78324;SDS011;67584;51.400;6.692;2023-04-03T02:51:05;4.93;;;3.88;;
78324;SDS011;67584;51.400;6.692;2023-04-03T02:53:31;7.20;;;4.32;;
78324;SDS011;67584;51.400;6.692;2023-04-03T02:56:02;5.30;;;3.83;;
78324;SDS011;67584;51.400;6.692;2023-04-03T02:58:27;5.55;;;4.20;;
78324;SDS011;67584;51.400;6.692;2023-04-03T03:00:55;7.05;;;4.03;;
78324;SDS011;67584;51.400;6.692;2023-04-03T03:03:21;7.78;;;4.22;;
78324;SDS011;67584;51.400;6.692;2023-04-03T03:05:47;6.80;;;3.78;;
78324;SDS011;67584;51.400;6.692;2023-04-03T03:08:13;7.03;;;4.10;;
78324;SDS011;67584;51.400;6.692;2023-04-03T03:10:38;6.65;;;4.20;;
78324;SDS011;67584;51.400;6.692;2023-04-03T03:13:06;6.63;;;3.65;;
78324;SDS011;67584;51.400;6.692;2023-04-03T03:15:31;5.40;;;3.75;;
78324;SDS011;67584;51.400;6.692;2023-04-03T03:17:57;6.40;;;3.65;;
78324;SDS011;67584;51.400;6.692;2023-04-03T03:20:23;7.70;;;4.03;;
78324;SDS011;67584;51.400;6.692;2023-04-03T03:22:49;7.03;;;3.90;;
78324;SDS011;67584;51.400;6.692;2023-04-03T03:25:14;6.65;;;3.17;;
78324;SDS011;67584;51.400;6.692;2023-04-03T03:27:40;5.70;;;3.42;;
78324;SDS011;67584;51.400;6.692;2023-04-03T03:30:06;5.45;;;3.55;;
78324;SDS011;67584;51.400;6.692;2023-04-03T03:32:32;6.72;;;3.65;;
78324;SDS011;67584;51.400;6.692;2023-04-03T03:34:58;6.05;;;3.42;;
78324;SDS011;67584;51.400;6.692;2023-04-03T03:37:24;6.38;;;3.28;;
78324;SDS011;67584;51.400;6.692;2023-04-03T03:39:50;4.35;;;2.90;;
78324;SDS011;67584;51.400;6.692;2023-04-03T03:42:15;3.92;;;2.65;;
78324;SDS011;67584;51.400;6.692;2023-04-03T03:44:42;4.78;;;2.70;;
78324;SDS011;67584;51.400;6.692;2023-04-03T03:47:07;5.68;;;3.03;;
78324;SDS011;67584;51.400;6.692;2023-04-03T03:49:36;4.25;;;2.83;;
78324;SDS011;67584;51.400;6.692;2023-04-03T03:52:02;6.03;;;2.80;;
78324;SDS011;67584;51.400;6.692;2023-04-03T03:54:27;6.25;;;3.17;;
78324;SDS011;67584;51.400;6.692;2023-04-03T03:56:53;5.82;;;2.83;;
78324;SDS011;67584;51.400;6.692;2023-04-03T03:59:19;6.03;;;2.80;;
78324;SDS011;67584;51.400;6.692;2023-04-03T04:01:46;9.90;;;3.13;;
78324;SDS011;67584;51.400;6.692;2023-04-03T04:04:12;4.50;;;2.78;;
78324;SDS011;67584;51.400;6.692;2023-04-03T04:06:37;5.18;;;2.60;;
78324;SDS011;67584;51.400;6.692;2023-04-03T04:09:06;5.40;;;2.60;;
78324;SDS011;67584;51.400;6.692;2023-04-03T04:11:33;3.63;;;2.63;;
78324;SDS011;67584;51.400;6.692;2023-04-03T04:13:59;4.78;;;2.78;;
78324;SDS011;67584;51.400;6.692;2023-04-03T04:16:27;5.32;;;3.10;;
78324;SDS011;67584;51.400;6.692;2023-04-03T04:18:55;5.50;;;2.30;;
78324;SDS011;67584;51.400;6.692;2023-04-03T04:21:21;4.30;;;1.85;;
78324;SDS011;67584;51.400;6.692;2023-04-03T04:23:49;5.30;;;2.35;;
78324;SDS011;67584;51.400;6.692;2023-04-03T04:26:15;4.13;;;2.08;;
78324;SDS011;67584;51.400;6.692;2023-04-03T04:28:41;4.85;;;2.58;;
78324;SDS011;67584;51.400;6.692;2023-04-03T04:31:07;4.63;;;2.08;;
78324;SDS011;67584;51.400;6.692;2023-04-03T04:33:33;2.97;;;1.90;;
78324;SDS011;67584;51.400;6.692;2023-04-03T04:36:02;5.47;;;2.75;;
78324;SDS011;67584;51.400;6.692;2023-04-03T04:38:28;3.00;;;2.13;;
78324;SDS011;67584;51.400;6.692;2023-04-03T04:40:54;2.22;;;1.95;;
78324;SDS011;67584;51.400;6.692;2023-04-03T04:43:21;7.40;;;3.08;;
78324;SDS011;67584;51.400;6.692;2023-04-03T04:45:59;3.53;;;2.17;;
78324;SDS011;67584;51.400;6.692;2023-04-03T04:48:33;5.18;;;2.65;;
78324;SDS011;67584;51.400;6.692;2023-04-03T04:51:00;3.70;;;2.15;;
78324;SDS011;67584;51.400;6.692;2023-04-03T04:53:26;2.60;;;1.77;;
78324;SDS011;67584;51.400;6.692;2023-04-03T04:55:52;5.40;;;2.85;;
78324;SDS011;67584;51.400;6.692;2023-04-03T04:58:18;5.65;;;2.50;;
78324;SDS011;67584;51.400;6.692;2023-04-03T05:00:44;4.75;;;2.20;;
78324;SDS011;67584;51.400;6.692;2023-04-03T05:03:10;5.40;;;2.42;;
78324;SDS011;67584;51.400;6.692;2023-04-03T05:05:37;4.45;;;2.90;;
78324;SDS011;67584;51.400;6.692;2023-04-03T05:08:03;6.60;;;2.60;;
78324;SDS011;67584;51.400;6.692;2023-04-03T05:10:29;8.75;;;2.20;;
78324;SDS011;67584;51.400;6.692;2023-04-03T05:12:55;3.03;;;1.88;;
78324;SDS011;67584;51.400;6.692;2023-04-03T05:15:21;2.72;;;2.22;;
78324;SDS011;67584;51.400;6.692;2023-04-03T05:17:46;5.82;;;2.83;;
78324;SDS011;67584;51.400;6.692;2023-04-03T05:20:14;5.65;;;2.33;;
78324;SDS011;67584;51.400;6.692;2023-04-03T05:22:41;6.85;;;2.85;;
78324;SDS011;67584;51.400;6.692;2023-04-03T05:25:09;7.25;;;2.90;;
78324;SDS011;67584;51.400;6.692;2023-04-03T05:27:37;5.07;;;2.25;;
78324;SDS011;67584;51.400;6.692;2023-04-03T05:30:03;6.07;;;2.33;;
78324;SDS011;67584;51.400;6.692;2023-04-03T05:32:30;5.05;;;2.50;;
78324;SDS011;67584;51.400;6.692;2023-04-03T05:35:09;6.30;;;2.55;;
78324;SDS011;67584;51.400;6.692;2023-04-03T05:37:35;5.07;;;2.65;;
78324;SDS011;67584;51.400;6.692;2023-04-03T05:40:02;4.20;;;2.20;;
78324;SDS011;67584;51.400;6.692;2023-04-03T05:42:29;4.90;;;2.70;;
78324;SDS011;67584;51.400;6.692;2023-04-03T05:44:55;4.38;;;1.85;;
78324;SDS011;67584;51.400;6.692;2023-04-03T05:47:20;6.75;;;2.13;;
78324;SDS011;67584;51.400;6.692;2023-04-03T05:49:46;5.07;;;2.38;;
78324;SDS011;67584;51.400;6.692;2023-04-03T05:52:22;6.32;;;2.10;;
78324;SDS011;67584;51.400;6.692;2023-04-03T05:54:52;4.18;;;2.10;;
78324;SDS011;67584;51.400;6.692;2023-04-03T05:57:23;5.65;;;2.38;;
78324;SDS011;67584;51.400;6.692;2023-04-03T05:59:49;3.55;;;2.28;;
78324;SDS011;67584;51.400;6.692;2023-04-03T06:02:16;5.07;;;2.30;;
78324;SDS011;67584;51.400;6.692;2023-04-03T06:04:45;3.92;;;2.08;;
78324;SDS011;67584;51.400;6.692;2023-04-03T06:07:17;4.22;;;2.72;;
78324;SDS011;67584;51.400;6.692;2023-04-03T06:09:46;3.38;;;2.38;;
78324;SDS011;67584;51.400;6.692;2023-04-03T06:12:13;7.20;;;3.75;;
78324;SDS011;67584;51.400;6.692;2023-04-03T06:14:39;4.07;;;2.38;;
78324;SDS011;67584;51.400;6.692;2023-04-03T06:17:04;4.75;;;3.20;;
78324;SDS011;67584;51.400;6.692;2023-04-03T06:19:31;5.22;;;2.55;;
78324;SDS011;67584;51.400;6.692;2023-04-03T06:21:56;5.03;;;2.38;;
78324;SDS011;67584;51.400;6.692;2023-04-03T06:24:23;3.38;;;1.60;;
78324;SDS011;67584;51.400;6.692;2023-04-03T06:26:50;9.85;;;4.22;;
78324;SDS011;67584;51.400;6.692;2023-04-03T06:29:17;2.85;;;2.00;;
78324;SDS011;67584;51.400;6.692;2023-04-03T06:31:46;8.77;;;2.70;;
78324;SDS011;67584;51.400;6.692;2023-04-03T06:34:13;2.92;;;2.10;;
78324;SDS011;67584;51.400;6.692;2023-04-03T06:36:40;3.83;;;2.33;;
78324;SDS011;67584;51.400;6.692;2023-04-03T06:39:08;5.65;;;2.30;;
78324;SDS011;67584;51.400;6.692;2023-04-03T06:41:38;5.95;;;2.40;;
78324;SDS011;67584;51.400;6.692;2023-04-03T06:44:04;3.03;;;2.15;;
78324;SDS011;67584;51.400;6.692;2023-04-03T06:46:30;2.92;;;2.03;;
78324;SDS011;67584;51.400;6.692;2023-04-03T06:48:55;5.88;;;2.15;;
78324;SDS011;67584;51.400;6.692;2023-04-03T06:51:25;4.28;;;2.22;;
78324;SDS011;67584;51.400;6.692;2023-04-03T06:53:53;6.38;;;2.80;;
78324;SDS011;67584;51.400;6.692;2023-04-03T06:56:21;5.82;;;2.40;;
78324;SDS011;67584;51.400;6.692;2023-04-03T06:58:47;4.40;;;2.35;;
78324;SDS011;67584;51.400;6.692;2023-04-03T07:01:14;4.95;;;2.30;;
78324;SDS011;67584;51.400;6.692;2023-04-03T07:03:41;5.03;;;1.90;;
78324;SDS011;67584;51.400;6.692;2023-04-03T07:06:07;4.47;;;2.20;;
78324;SDS011;67584;51.400;6.692;2023-04-03T07:08:36;6.22;;;2.40;;
78324;SDS011;67584;51.400;6.692;2023-04-03T07:11:02;5.55;;;2.30;;
78324;SDS011;67584;51.400;6.692;2023-04-03T07:13:28;5.50;;;2.22;;
78324;SDS011;67584;51.400;6.692;2023-04-03T07:15:54;2.40;;;1.83;;
78324;SDS011;67584;51.400;6.692;2023-04-03T07:18:20;3.13;;;1.92;;
78324;SDS011;67584;51.400;6.692;2023-04-03T07:20:46;4.63;;;2.58;;
78324;SDS011;67584;51.400;6.692;2023-04-03T07:23:12;5.18;;;2.13;;
78324;SDS011;67584;51.400;6.692;2023-04-03T07:25:48;4.63;;;2.00;;
78324;SDS011;67584;51.400;6.692;2023-04-03T07:28:15;4.03;;;2.20;;
78324;SDS011;67584;51.400;6.692;2023-04-03T07:30:42;4.13;;;2.17;;
78324;SDS011;67584;51.400;6.692;2023-04-03T07:33:12;3.65;;;2.35;;
78324;SDS011;67584;51.400;6.692;2023-04-03T07:35:40;4.32;;;2.30;;
78324;SDS011;67584;51.400;6.692;2023-04-03T07:38:06;3.55;;;2.05;;
78324;SDS011;67584;51.400;6.692;2023-04-03T07:40:33;5.80;;;2.70;;
78324;SDS011;67584;51.400;6.692;2023-04-03T07:42:59;5.03;;;2.30;;
78324;SDS011;67584;51.400;6.692;2023-04-03T07:45:24;5.25;;;2.45;;
78324;SDS011;67584;51.400;6.692;2023-04-03T07:47:50;5.57;;;2.72;;
78324;SDS011;67584;51.400;6.692;2023-04-03T07:50:16;4.20;;;2.50;;
78324;SDS011;67584;51.400;6.692;2023-04-03T07:52:43;5.97;;;2.10;;
78324;SDS011;67584;51.400;6.692;2023-04-03T07:55:09;6.97;;;2.45;;
78324;SDS011;67584;51.400;6.692;2023-04-03T07:57:35;5.10;;;2.35;;
78324;SDS011;67584;51.400;6.692;2023-04-03T08:00:02;5.38;;;2.60;;
78324;SDS011;67584;51.400;6.692;2023-04-03T08:02:37;4.20;;;2.20;;
78324;SDS011;67584;51.400;6.692;2023-04-03T08:05:03;4.00;;;1.98;;
78324;SDS011;67584;51.400;6.692;2023-04-03T08:07:28;4.90;;;2.78;;
78324;SDS011;67584;51.400;6.692;2023-04-03T08:09:54;5.10;;;1.80;;
78324;SDS011;67584;51.400;6.692;2023-04-03T08:12:20;2.10;;;1.52;;
78324;SDS011;67584;51.400;6.692;2023-04-03T08:14:46;4.05;;;2.00;;
78324;SDS011;67584;51.400;6.692;2023-04-03T08:17:11;5.03;;;2.30;;
78324;SDS011;67584;51.400;6.692;2023-04-03T08:19:38;3.72;;;1.80;;
78324;SDS011;67584;51.400;6.692;2023-04-03T08:22:04;2.33;;;1.55;;
78324;SDS011;67584;51.400;6.692;2023-04-03T08:24:31;4.97;;;2.25;;
78324;SDS011;67584;51.400;6.692;2023-04-03T08:26:57;3.30;;;1.73;;
78324;SDS011;67584;51.400;6.692;2023-04-03T08:29:23;4.47;;;1.83;;
78324;SDS011;67584;51.400;6.692;2023-04-03T08:31:50;3.47;;;1.60;;
78324;SDS011;67584;51.400;6.692;2023-04-03T08:34:16;4.13;;;1.80;;
78324;SDS011;67584;51.400;6.692;2023-04-03T08:36:42;3.15;;;1.85;;
78324;SDS011;67584;51.400;6.692;2023-04-03T08:39:08;4.25;;;1.70;;
78324;SDS011;67584;51.400;6.692;2023-04-03T08:41:35;4.07;;;2.67;;
78324;SDS011;67584;51.400;6.692;2023-04-03T08:46:56;4.72;;;1.55;;
78324;SDS011;67584;51.400;6.692;2023-04-03T08:50:05;2.95;;;1.35;;
78324;SDS011;67584;51.400;6.692;2023-04-03T08:52:36;5.53;;;2.30;;
78324;SDS011;67584;51.400;6.692;2023-04-03T08:55:06;4.22;;;1.50;;
78324;SDS011;67584;51.400;6.692;2023-04-03T08:58:03;2.15;;;1.33;;
78324;SDS011;67584;51.400;6.692;2023-04-03T09:00:50;3.30;;;1.55;;
78324;SDS011;67584;51.400;6.692;2023-04-03T09:03:41;2.10;;;1.27;;
78324;SDS011;67584;51.400;6.692;2023-04-03T09:06:12;6.53;;;2.22;;
78324;SDS011;67584;51.400;6.692;2023-04-03T09:08:48;5.03;;;2.55;;
78324;SDS011;67584;51.400;6.692;2023-04-03T09:11:24;7.43;;;3.20;;
78324;SDS011;67584;51.400;6.692;2023-04-03T09:14:01;7.82;;;2.47;;
78324;SDS011;67584;51.400;6.692;2023-04-03T09:16:49;2.47;;;1.20;;
78324;SDS011;67584;51.400;6.692;2023-04-03T09:22:18;5.35;;;1.90;;
78324;SDS011;67584;51.400;6.692;2023-04-03T09:27:40;1.35;;;1.17;;
78324;SDS011;67584;51.400;6.692;2023-04-03T09:30:11;3.30;;;1.20;;
78324;SDS011;67584;51.400;6.692;2023-04-03T09:32:43;1.52;;;1.13;;
78324;SDS011;67584;51.400;6.692;2023-04-03T09:37:52;3.25;;;1.20;;
78324;SDS011;67584;51.400;6.692;2023-04-03T09:40:28;2.47;;;1.50;;
78324;SDS011;67584;51.400;6.692;2023-04-03T09:42:57;3.25;;;1.50;;
78324;SDS011;67584;51.400;6.692;2023-04-03T09:45:41;2.42;;;1.38;;
78324;SDS011;67584;51.400;6.692;2023-04-03T09:50:38;2.58;;;1.20;;
78324;SDS011;67584;51.400;6.692;2023-04-03T09:53:36;1.38;;;1.05;;
78324;SDS011;67584;51.400;6.692;2023-04-03T09:56:05;4.45;;;1.38;;
78324;SDS011;67584;51.400;6.692;2023-04-03T09:58:50;2.17;;;1.30;;
78324;SDS011;67584;51.400;6.692;2023-04-03T10:04:11;1.50;;;1.30;;
78324;SDS011;67584;51.400;6.692;2023-04-03T10:06:39;1.20;;;1.10;;
78324;SDS011;67584;51.400;6.692;2023-04-03T10:11:57;1.42;;;1.10;;
78324;SDS011;67584;51.400;6.692;2023-04-03T10:14:33;1.83;;;1.20;;
78324;SDS011;67584;51.400;6.692;2023-04-03T10:22:23;1.63;;;1.17;;
78324;SDS011;67584;51.400;6.692;2023-04-03T10:27:50;3.47;;;1.73;;
78324;SDS011;67584;51.400;6.692;2023-04-03T10:35:49;2.65;;;1.20;;
78324;SDS011;67584;51.400;6.692;2023-04-03T10:38:26;2.03;;;1.15;;
78324;SDS011;67584;51.400;6.692;2023-04-03T10:41:19;1.77;;;1.20;;
78324;SDS011;67584;51.400;6.692;2023-04-03T10:49:11;2.25;;;1.33;;
78324;SDS011;67584;51.400;6.692;2023-04-03T10:56:51;3.35;;;1.50;;
78324;SDS011;67584;51.400;6.692;2023-04-03T11:02:14;2.38;;;1.40;;
78324;SDS011;67584;51.400;6.692;2023-04-03T11:04:44;2.55;;;1.50;;
78324;SDS011;67584;51.400;6.692;2023-04-03T11:07:20;4.68;;;1.45;;
78324;SDS011;67584;51.400;6.692;2023-04-03T11:09:50;1.98;;;1.50;;
78324;SDS011;67584;51.400;6.692;2023-04-03T11:12:25;2.42;;;1.38;;
78324;SDS011;67584;51.400;6.692;2023-04-03T11:14:58;3.63;;;1.48;;
78324;SDS011;67584;51.400;6.692;2023-04-03T11:17:28;2.35;;;1.50;;
78324;SDS011;67584;51.400;6.692;2023-04-03T11:25:29;3.13;;;1.60;;
78324;SDS011;67584;51.400;6.692;2023-04-03T11:27:59;2.72;;;1.60;;
78324;SDS011;67584;51.400;6.692;2023-04-03T11:35:37;5.38;;;1.60;;
78324;SDS011;67584;51.400;6.692;2023-04-03T11:40:42;3.65;;;2.25;;
78324;SDS011;67584;51.400;6.692;2023-04-03T11:43:21;7.15;;;1.95;;
78324;SDS011;67584;51.400;6.692;2023-04-03T11:50:54;2.90;;;1.70;;
78324;SDS011;67584;51.400;6.692;2023-04-03T11:55:56;3.35;;;1.73;;
78324;SDS011;67584;51.400;6.692;2023-04-03T12:01:00;2.47;;;1.38;;
78324;SDS011;67584;51.400;6.692;2023-04-03T12:29:14;2.75;;;1.70;;
78324;SDS011;67584;51.400;6.692;2023-04-03T12:31:48;3.08;;;1.75;;
78324;SDS011;67584;51.400;6.692;2023-04-03T12:37:44;3.10;;;1.60;;
78324;SDS011;67584;51.400;6.692;2023-04-03T12:43:28;4.15;;;1.73;;
78324;SDS011;67584;51.400;6.692;2023-04-03T12:48:33;3.33;;;2.20;;
78324;SDS011;67584;51.400;6.692;2023-04-03T12:51:19;4.32;;;1.80;;
78324;SDS011;67584;51.400;6.692;2023-04-03T12:53:51;2.25;;;1.50;;
78324;SDS011;67584;51.400;6.692;2023-04-03T12:56:30;2.03;;;1.40;;
78324;SDS011;67584;51.400;6.692;2023-04-03T12:59:13;2.50;;;1.63;;
78324;SDS011;67584;51.400;6.692;2023-04-03T13:01:42;3.17;;;1.60;;
78324;SDS011;67584;51.400;6.692;2023-04-03T13:04:09;2.90;;;1.60;;
78324;SDS011;67584;51.400;6.692;2023-04-03T13:06:38;1.80;;;1.30;;
78324;SDS011;67584;51.400;6.692;2023-04-03T13:09:06;3.00;;;1.48;;
78324;SDS011;67584;51.400;6.692;2023-04-03T13:11:43;3.42;;;1.35;;
78324;SDS011;67584;51.400;6.692;2023-04-03T13:14:21;1.80;;;1.60;;
78324;SDS011;67584;51.400;6.692;2023-04-03T13:16:54;2.00;;;1.40;;
78324;SDS011;67584;51.400;6.692;2023-04-03T13:19:22;2.70;;;1.65;;
78324;SDS011;67584;51.400;6.692;2023-04-03T13:21:49;3.25;;;1.80;;
78324;SDS011;67584;51.400;6.692;2023-04-03T13:24:23;2.90;;;1.60;;
78324;SDS011;67584;51.400;6.692;2023-04-03T13:26:50;2.50;;;1.85;;
78324;SDS011;67584;51.400;6.692;2023-04-03T13:29:28;2.28;;;1.60;;
78324;SDS011;67584;51.400;6.692;2023-04-03T13:31:56;3.00;;;1.50;;
78324;SDS011;67584;51.400;6.692;2023-04-03T13:34:24;2.17;;;1.70;;
78324;SDS011;67584;51.400;6.692;2023-04-03T13:41:52;11.82;;;2.45;;
78324;SDS011;67584;51.400;6.692;2023-04-03T13:46:49;4.25;;;1.85;;
78324;SDS011;67584;51.400;6.692;2023-04-03T13:49:20;4.22;;;2.08;;
78324;SDS011;67584;51.400;6.692;2023-04-03T13:52:03;3.05;;;1.70;;
78324;SDS011;67584;51.400;6.692;2023-04-03T13:54:47;4.00;;;1.50;;
78324;SDS011;67584;51.400;6.692;2023-04-03T13:57:19;2.70;;;1.85;;
78324;SDS011;67584;51.400;6.692;2023-04-03T13:59:45;2.42;;;1.65;;
78324;SDS011;67584;51.400;6.692;2023-04-03T14:02:31;4.00;;;2.13;;
78324;SDS011;67584;51.400;6.692;2023-04-03T14:04:59;3.92;;;1.65;;
78324;SDS011;67584;51.400;6.692;2023-04-03T14:07:28;3.50;;;1.65;;
78324;SDS011;67584;51.400;6.692;2023-04-03T14:09:56;3.20;;;1.70;;
78324;SDS011;67584;51.400;6.692;2023-04-03T14:12:31;3.75;;;1.73;;
78324;SDS011;67584;51.400;6.692;2023-04-03T14:15:00;2.33;;;1.70;;
78324;SDS011;67584;51.400;6.692;2023-04-03T14:17:27;2.10;;;1.50;;
78324;SDS011;67584;51.400;6.692;2023-04-03T14:19:54;2.40;;;1.70;;
78324;SDS011;67584;51.400;6.692;2023-04-03T14:22:22;2.00;;;1.40;;
78324;SDS011;67584;51.400;6.692;2023-04-03T14:24:54;2.92;;;2.22;;
78324;SDS011;67584;51.400;6.692;2023-04-03T14:27:25;3.88;;;1.85;;
78324;SDS011;67584;51.400;6.692;2023-04-03T14:29:54;3.65;;;1.55;;
78324;SDS011;67584;51.400;6.692;2023-04-03T14:32:22;3.53;;;1.50;;
78324;SDS011;67584;51.400;6.692;2023-04-03T14:34:50;3.00;;;1.98;;
78324;SDS011;67584;51.400;6.692;2023-04-03T14:37:17;2.72;;;1.80;;
78324;SDS011;67584;51.400;6.692;2023-04-03T14:39:48;2.55;;;1.63;;
78324;SDS011;67584;51.400;6.692;2023-04-03T14:42:22;2.20;;;1.60;;
78324;SDS011;67584;51.400;6.692;2023-04-03T14:44:49;3.55;;;2.03;;
78324;SDS011;67584;51.400;6.692;2023-04-03T14:47:17;4.35;;;1.98;;
78324;SDS011;67584;51.400;6.692;2023-04-03T14:49:46;2.65;;;1.80;;
78324;SDS011;67584;51.400;6.692;2023-04-03T14:52:26;2.78;;;1.60;;
78324;SDS011;67584;51.400;6.692;2023-04-03T14:54:55;2.85;;;1.60;;
78324;SDS011;67584;51.400;6.692;2023-04-03T14:57:22;4.97;;;2.13;;
78324;SDS011;67584;51.400;6.692;2023-04-03T14:59:50;3.45;;;2.03;;
78324;SDS011;67584;51.400;6.692;2023-04-03T15:02:24;3.08;;;1.80;;
78324;SDS011;67584;51.400;6.692;2023-04-03T15:04:55;2.50;;;1.70;;
78324;SDS011;67584;51.400;6.692;2023-04-03T15:07:22;3.92;;;1.70;;
78324;SDS011;67584;51.400;6.692;2023-04-03T15:09:50;3.22;;;1.48;;
78324;SDS011;67584;51.400;6.692;2023-04-03T15:12:16;2.67;;;1.60;;
78324;SDS011;67584;51.400;6.692;2023-04-03T15:14:42;3.20;;;2.00;;
78324;SDS011;67584;51.400;6.692;2023-04-03T15:17:14;1.92;;;1.45;;
78324;SDS011;67584;51.400;6.692;2023-04-03T15:19:41;2.20;;;1.58;;
78324;SDS011;67584;51.400;6.692;2023-04-03T15:22:09;2.70;;;1.70;;
78324;SDS011;67584;51.400;6.692;2023-04-03T15:24:42;2.28;;;1.52;;
78324;SDS011;67584;51.400;6.692;2023-04-03T15:27:08;2.28;;;1.35;;
78324;SDS011;67584;51.400;6.692;2023-04-03T15:29:35;3.53;;;1.70;;
78324;SDS011;67584;51.400;6.692;2023-04-03T15:32:02;3.30;;;1.48;;
78324;SDS011;67584;51.400;6.692;2023-04-03T15:34:27;3.05;;;1.75;;
78324;SDS011;67584;51.400;6.692;2023-04-03T15:36:53;3.55;;;1.67;;
78324;SDS011;67584;51.400;6.692;2023-04-03T15:39:19;3.00;;;1.70;;
78324;SDS011;67584;51.400;6.692;2023-04-03T15:41:46;2.28;;;1.60;;
78324;SDS011;67584;51.400;6.692;2023-04-03T15:44:12;3.63;;;1.52;;
78324;SDS011;67584;51.400;6.692;2023-04-03T15:46:39;1.95;;;1.60;;
78324;SDS011;67584;51.400;6.692;2023-04-03T15:49:06;3.25;;;1.70;;
78324;SDS011;67584;51.400;6.692;2023-04-03T15:51:31;2.10;;;1.63;;
78324;SDS011;67584;51.400;6.692;2023-04-03T15:53:57;2.72;;;1.67;;
78324;SDS011;67584;51.400;6.692;2023-04-03T15:56:23;3.45;;;2.22;;
78324;SDS011;67584;51.400;6.692;2023-04-03T15:58:48;4.03;;;1.83;;
78324;SDS011;67584;51.400;6.692;2023-04-03T16:01:14;4.68;;;1.80;;
78324;SDS011;67584;51.400;6.692;2023-04-03T16:03:40;3.88;;;1.73;;
78324;SDS011;67584;51.400;6.692;2023-04-03T16:06:12;2.47;;;1.48;;
78324;SDS011;67584;51.400;6.692;2023-04-03T16:08:43;2.22;;;1.60;;
78324;SDS011;67584;51.400;6.692;2023-04-03T16:11:09;4.10;;;1.73;;
78324;SDS011;67584;51.400;6.692;2023-04-03T16:13:35;2.85;;;1.63;;
78324;SDS011;67584;51.400;6.692;2023-04-03T16:16:02;3.67;;;1.58;;
78324;SDS011;67584;51.400;6.692;2023-04-03T16:18:28;2.88;;;1.63;;
78324;SDS011;67584;51.400;6.692;2023-04-03T16:20:54;2.80;;;1.60;;
78324;SDS011;67584;51.400;6.692;2023-04-03T16:23:20;2.85;;;1.75;;
78324;SDS011;67584;51.400;6.692;2023-04-03T16:25:46;2.67;;;1.70;;
78324;SDS011;67584;51.400;6.692;2023-04-03T16:28:13;3.63;;;1.70;;
78324;SDS011;67584;51.400;6.692;2023-04-03T16:30:40;2.47;;;2.05;;
78324;SDS011;67584;51.400;6.692;2023-04-03T16:33:08;2.58;;;1.67;;
78324;SDS011;67584;51.400;6.692;2023-04-03T16:35:34;4.15;;;1.98;;
78324;SDS011;67584;51.400;6.692;2023-04-03T16:38:00;3.15;;;2.05;;
78324;SDS011;67584;51.400;6.692;2023-04-03T16:40:26;2.50;;;1.75;;
78324;SDS011;67584;51.400;6.692;2023-04-03T16:42:52;3.33;;;2.20;;
78324;SDS011;67584;51.400;6.692;2023-04-03T16:45:18;3.42;;;1.75;;
78324;SDS011;67584;51.400;6.692;2023-04-03T16:47:43;2.50;;;1.55;;
78324;SDS011;67584;51.400;6.692;2023-04-03T16:50:09;3.03;;;1.65;;
78324;SDS011;67584;51.400;6.692;2023-04-03T16:52:35;3.20;;;1.88;;